createdAt,value
2023-01-07T00:01:42.740Z,99221.91
2023-01-07T00:04:28.267Z,99220.97
2023-01-07T00:07:13.688Z,99225.25
2023-01-07T00:09:59.080Z,99221.69
2023-01-07T00:12:44.596Z,99209.47
2023-01-07T00:15:30.070Z,99215.44
2023-01-07T00:18:15.336Z,99198.00
2023-01-07T00:21:04.049Z,99192.69
2023-01-07T00:23:49.803Z,99189.22
2023-01-07T00:26:37.058Z,99194.34
2023-01-07T00:29:22.474Z,99216.81
2023-01-07T00:32:08.094Z,99213.34
2023-01-07T00:34:53.443Z,99201.34
2023-01-07T00:37:50.766Z,99192.53
2023-01-07T00:40:36.477Z,99211.97
2023-01-07T00:43:22.039Z,99204.41
2023-01-07T00:46:10.776Z,99204.59
2023-01-07T00:48:56.899Z,99199.66
2023-01-07T00:51:42.375Z,99208.47
2023-01-07T00:54:27.699Z,99211.94
2023-01-07T00:57:14.136Z,99199.91
2023-01-07T01:00:00.762Z,99192.16
2023-01-07T01:02:47.505Z,99189.63
2023-01-07T01:05:33.465Z,99196.53
2023-01-07T01:08:20.447Z,99189.66
2023-01-07T01:11:08.971Z,99186.22
2023-01-07T01:13:54.520Z,99175.00
2023-01-07T01:16:39.925Z,99189.66
2023-01-07T01:19:25.362Z,99192.25
2023-01-07T01:22:10.617Z,99184.50
2023-01-07T01:24:55.856Z,99173.25
2023-01-07T01:27:41.698Z,99171.53
2023-01-07T01:30:27.485Z,99162.88
2023-01-07T01:33:14.408Z,99160.28
2023-01-07T01:36:08.090Z,99168.94
2023-01-07T01:38:53.569Z,99166.38
2023-01-07T01:41:39.970Z,99159.50
2023-01-07T01:44:48.343Z,99168.97
2023-01-07T01:47:46.008Z,99168.16
2023-01-07T01:50:44.184Z,99161.22
2023-01-07T01:53:34.987Z,99154.31
2023-01-07T01:56:30.445Z,99160.41
2023-01-07T01:59:20.406Z,99156.09
2023-01-07T02:02:07.107Z,99151.75
2023-01-07T02:04:55.697Z,99154.34
2023-01-07T02:07:41.497Z,99145.72
2023-01-07T02:10:28.644Z,99139.72
2023-01-07T02:13:46.918Z,99129.34
2023-01-07T02:16:38.871Z,99129.34
2023-01-07T02:19:42.314Z,99141.44
2023-01-07T02:22:47.519Z,99137.13
2023-01-07T02:26:01.409Z,99136.25
2023-01-07T02:29:08.365Z,99140.56
2023-01-07T02:32:35.225Z,99125.03
2023-01-07T02:35:39.563Z,99125.00
2023-01-07T02:38:34.073Z,99116.31
2023-01-07T02:41:32.830Z,99109.38
2023-01-07T02:44:31.007Z,99106.78
2023-01-07T02:47:30.371Z,99106.81
2023-01-07T02:50:19.205Z,99099.84
2023-01-07T02:53:06.374Z,99104.19
2023-01-07T02:56:02.604Z,99106.00
2023-01-07T02:59:10.728Z,99112.91
2023-01-07T03:02:13.750Z,99108.63
2023-01-07T03:05:27.608Z,99102.56
2023-01-07T03:08:26.141Z,99094.78
2023-01-07T03:11:13.972Z,99089.59
2023-01-07T03:14:09.751Z,99078.38
2023-01-07T03:17:02.950Z,99074.91
2023-01-07T03:19:54.988Z,99061.09
2023-01-07T03:22:43.228Z,99055.09
2023-01-07T03:25:32.849Z,99042.19
2023-01-07T03:28:23.231Z,99057.75
2023-01-07T03:31:14.257Z,99056.91
2023-01-07T03:34:16.637Z,99055.25
2023-01-07T03:37:27.025Z,99046.63
2023-01-07T03:40:12.874Z,99037.06
2023-01-07T03:43:00.115Z,99034.53
2023-01-07T03:45:47.290Z,99026.78
2023-01-07T03:48:33.049Z,99022.44
2023-01-07T03:51:18.387Z,99017.28
2023-01-07T03:54:04.798Z,99022.50
2023-01-07T03:56:50.591Z,99004.38
2023-01-07T03:59:36.637Z,98985.38
2023-01-07T04:02:23.511Z,98987.94
2023-01-07T04:05:10.980Z,98988.81
2023-01-07T04:07:56.800Z,98977.63
2023-01-07T04:10:44.280Z,98967.28
2023-01-07T04:13:31.626Z,98948.34
2023-01-07T04:16:17.229Z,98955.34
2023-01-07T04:19:03.772Z,98956.19
2023-01-07T04:21:49.768Z,98955.34
2023-01-07T04:24:35.199Z,98952.72
2023-01-07T04:27:21.123Z,98937.19
2023-01-07T04:30:07.358Z,98933.78
2023-01-07T04:32:52.749Z,98926.09
2023-01-07T04:35:41.675Z,98934.75
2023-01-07T04:38:27.034Z,98915.75
2023-01-07T04:41:13.933Z,98913.22
2023-01-07T04:43:59.761Z,98902.84
2023-01-07T04:46:45.796Z,98914.06
2023-01-07T04:49:31.188Z,98905.44
2023-01-07T04:52:17.447Z,98899.41
2023-01-07T04:55:02.882Z,98894.25
2023-01-07T04:57:49.190Z,98892.53
2023-01-07T05:00:35.501Z,98891.69
2023-01-07T05:03:22.433Z,98889.06
2023-01-07T05:06:09.465Z,98878.69
2023-01-07T05:08:56.550Z,98885.59
2023-01-07T05:11:42.020Z,98876.94
2023-01-07T05:14:28.715Z,98883.88
2023-01-07T05:17:15.675Z,98868.28
2023-01-07T05:20:01.941Z,98863.97
2023-01-07T05:22:50.253Z,98854.53
2023-01-07T05:25:37.265Z,98861.28
2023-01-07T05:28:22.831Z,98866.34
2023-01-07T05:31:08.521Z,98845.50
2023-01-07T05:33:54.289Z,98838.44
2023-01-07T05:36:40.656Z,98823.66
2023-01-07T05:39:26.463Z,98819.22
2023-01-07T05:42:12.866Z,98812.34
2023-01-07T05:44:58.579Z,98815.88
2023-01-07T05:47:44.053Z,98807.13
2023-01-07T05:50:29.467Z,98805.34
2023-01-07T05:53:16.444Z,98795.84
2023-01-07T05:56:02.324Z,98779.38
2023-01-07T05:58:47.810Z,98767.38
2023-01-07T06:01:33.406Z,98756.97
2023-01-07T06:04:19.244Z,98759.56
2023-01-07T06:07:04.953Z,98760.44
2023-01-07T06:09:50.260Z,98759.59
2023-01-07T06:12:35.644Z,98754.41
2023-01-07T06:15:21.051Z,98742.34
2023-01-07T06:18:06.603Z,98744.09
2023-01-07T06:20:51.822Z,98728.56
2023-01-07T06:23:37.379Z,98714.81
2023-01-07T06:26:23.064Z,98711.31
2023-01-07T06:29:10.033Z,98700.94
2023-01-07T06:31:55.478Z,98694.94
2023-01-07T06:34:40.776Z,98690.56
2023-01-07T06:37:25.924Z,98689.72
2023-01-07T06:40:12.535Z,98690.56
2023-01-07T06:42:58.156Z,98694.84
2023-01-07T06:45:43.597Z,98683.66
2023-01-07T06:48:28.882Z,98683.75
2023-01-07T06:51:14.165Z,98687.38
2023-01-07T06:53:59.423Z,98694.41
2023-01-07T06:56:44.922Z,98704.81
2023-01-07T06:59:30.257Z,98692.69
2023-01-07T07:02:24.368Z,98691.03
2023-01-07T07:05:11.175Z,98692.84
2023-01-07T07:07:56.656Z,98686.94
2023-01-07T07:10:42.013Z,98688.84
2023-01-07T07:13:27.311Z,98685.56
2023-01-07T07:16:12.887Z,98678.81
2023-01-07T07:18:58.576Z,98667.75
2023-01-07T07:21:43.915Z,98679.06
2023-01-07T07:24:29.346Z,98674.00
2023-01-07T07:27:14.789Z,98672.44
2023-01-07T07:30:00.215Z,98686.31
2023-01-07T07:32:46.415Z,98680.22
2023-01-07T07:35:31.938Z,98686.34
2023-01-07T07:38:18.555Z,98698.31
2023-01-07T07:41:03.799Z,98685.38
2023-01-07T07:43:49.451Z,98688.00
2023-01-07T07:46:35.026Z,98682.06
2023-01-07T07:49:20.676Z,98683.06
2023-01-07T07:52:06.671Z,98671.94
2023-01-07T07:54:52.039Z,98676.34
2023-01-07T07:57:37.528Z,98671.28
2023-01-07T08:00:23.355Z,98677.34
2023-01-07T08:03:08.883Z,98671.50
2023-01-07T08:05:54.570Z,98670.75
2023-01-07T08:08:40.317Z,98676.81
2023-01-07T08:11:25.902Z,98673.44
2023-01-07T08:14:11.628Z,98661.34
2023-01-07T08:16:57.301Z,98654.56
2023-01-07T08:19:42.642Z,98665.00
2023-01-07T08:22:27.935Z,98657.38
2023-01-07T08:25:13.280Z,98653.84
2023-01-07T08:27:59.795Z,98640.84
2023-01-07T08:30:45.362Z,98644.34
2023-01-07T08:33:34.176Z,98635.78
2023-01-07T08:36:23.654Z,98639.31
2023-01-07T08:39:09.774Z,98636.81
2023-01-07T08:41:55.484Z,98634.22
2023-01-07T08:44:40.815Z,98632.50
2023-01-07T08:47:29.171Z,98635.91
2023-01-07T08:50:15.034Z,98630.00
2023-01-07T08:53:00.752Z,98630.91
2023-01-07T08:55:46.843Z,98630.13
2023-01-07T08:58:32.245Z,98619.84
2023-01-07T09:01:17.619Z,98612.06
2023-01-07T09:04:03.498Z,98610.38
2023-01-07T09:06:48.918Z,98613.81
2023-01-07T09:09:34.818Z,98612.06
2023-01-07T09:12:20.244Z,98605.00
2023-01-07T09:15:05.913Z,98600.53
2023-01-07T09:17:51.487Z,98599.56
2023-01-07T09:20:37.426Z,98592.53
2023-01-07T09:23:22.573Z,98602.81
2023-01-07T09:26:08.155Z,98596.81
2023-01-07T09:28:53.783Z,98585.59
2023-01-07T09:31:39.085Z,98584.75
2023-01-07T09:34:24.439Z,98582.22
2023-01-07T09:37:09.755Z,98572.81
2023-01-07T09:39:55.297Z,98570.22
2023-01-07T09:42:44.321Z,98562.47
2023-01-07T09:45:34.797Z,98568.47
2023-01-07T09:48:26.062Z,98546.88
2023-01-07T09:51:39.804Z,98563.25
2023-01-07T09:54:37.941Z,98547.69
2023-01-07T09:57:23.352Z,98551.03
2023-01-07T10:00:23.009Z,98545.78
2023-01-07T10:03:36.074Z,98544.00
2023-01-07T10:06:53.870Z,98536.06
2023-01-07T10:09:45.220Z,98544.47
2023-01-07T10:12:54.064Z,98538.13
2023-01-07T10:16:09.744Z,98543.59
2023-01-07T10:19:53.069Z,98545.56
2023-01-07T10:22:58.597Z,98539.09
2023-01-07T10:25:47.927Z,98528.44
2023-01-07T10:28:43.388Z,98544.41
2023-01-07T10:31:29.881Z,98535.34
2023-01-07T10:34:38.780Z,98519.44
2023-01-07T10:37:35.127Z,98525.84
2023-01-07T10:40:23.984Z,98521.78
2023-01-07T10:43:34.585Z,98515.09
2023-01-07T10:47:00.258Z,98500.97
2023-01-07T10:50:09.158Z,98499.28
2023-01-07T10:53:31.553Z,98490.81
2023-01-07T10:56:17.344Z,98465.84
2023-01-07T10:59:03.174Z,98440.06
2023-01-07T11:01:52.921Z,98451.47
2023-01-07T11:04:38.543Z,98448.13
2023-01-07T11:07:47.887Z,98405.13
2023-01-07T11:10:37.403Z,98425.19
2023-01-07T11:13:27.642Z,98415.56
2023-01-07T11:16:25.636Z,98405.72
2023-01-07T11:19:12.772Z,98398.31
2023-01-07T11:21:58.689Z,98386.72
2023-01-07T11:24:43.936Z,98373.34
2023-01-07T11:27:34.550Z,98370.53
2023-01-07T11:30:22.105Z,98360.78
2023-01-07T11:33:16.572Z,98365.78
2023-01-07T11:36:02.283Z,98370.63
2023-01-07T11:38:47.970Z,98349.56
2023-01-07T11:41:33.630Z,98374.81
2023-01-07T11:44:19.318Z,98365.63
2023-01-07T11:47:04.775Z,98361.38
2023-01-07T11:49:50.502Z,98355.03
2023-01-07T11:52:35.902Z,98352.16
2023-01-07T11:55:23.103Z,98343.63
2023-01-07T11:58:28.257Z,98343.97
2023-01-07T12:01:21.133Z,98350.59
2023-01-07T12:04:27.288Z,98341.66
2023-01-07T12:07:16.776Z,98345.44
2023-01-07T12:10:02.361Z,98339.59
2023-01-07T12:12:47.679Z,98330.16
2023-01-07T12:15:48.956Z,98343.19
2023-01-07T12:18:43.573Z,98319.13
2023-01-07T12:21:35.214Z,98332.22
2023-01-07T12:24:29.677Z,98308.13
2023-01-07T12:27:38.933Z,98317.63
2023-01-07T12:30:30.335Z,98311.63
2023-01-07T12:33:40.255Z,98314.31
2023-01-07T12:36:46.938Z,98303.94
2023-01-07T12:39:40.604Z,98301.25
2023-01-07T12:42:31.874Z,98307.22
2023-01-07T12:45:29.514Z,98290.78
2023-01-07T12:48:53.078Z,98269.97
2023-01-07T12:52:05.258Z,98263.06
2023-01-07T12:55:01.899Z,98255.22
2023-01-07T12:58:03.839Z,98242.25
2023-01-07T13:01:16.204Z,98243.16
2023-01-07T13:04:06.369Z,98238.75
2023-01-07T13:07:00.520Z,98231.72
2023-01-07T13:10:00.063Z,98236.91
2023-01-07T13:12:48.466Z,98222.94
2023-01-07T13:15:39.041Z,98209.91
2023-01-07T13:18:24.962Z,98216.84
2023-01-07T13:21:18.622Z,98214.16
2023-01-07T13:24:10.072Z,98206.47
2023-01-07T13:27:33.522Z,98197.94
2023-01-07T13:30:43.856Z,98198.03
2023-01-07T13:33:44.117Z,98181.66
2023-01-07T13:36:45.186Z,98178.22
2023-01-07T13:39:33.557Z,98185.97
2023-01-07T13:42:25.161Z,98161.78
2023-01-07T13:45:19.618Z,98174.75
2023-01-07T13:48:16.556Z,98174.03
2023-01-07T13:51:08.949Z,98182.53
2023-01-07T13:53:54.457Z,98162.59
2023-01-07T13:56:40.421Z,98159.09
2023-01-07T13:59:31.774Z,98151.41
2023-01-07T14:02:27.434Z,98155.75
2023-01-07T14:05:19.140Z,98137.69
2023-01-07T14:08:04.806Z,98144.59
2023-01-07T14:10:54.399Z,98149.06
2023-01-07T14:13:47.835Z,98143.88
2023-01-07T14:16:39.641Z,98129.13
2023-01-07T14:19:40.476Z,98124.00
2023-01-07T14:22:50.509Z,98114.38
2023-01-07T14:25:45.191Z,98118.59
2023-01-07T14:29:23.316Z,98097.00
2023-01-07T14:32:29.768Z,98095.41
2023-01-07T14:35:30.673Z,98104.34
2023-01-07T14:38:31.644Z,98085.44
2023-01-07T14:41:18.529Z,98083.00
2023-01-07T14:44:24.926Z,98089.88
2023-01-07T14:47:15.311Z,98113.13
2023-01-07T14:50:24.540Z,98079.44
2023-01-07T14:53:15.930Z,98103.69
2023-01-07T14:56:19.102Z,98096.00
2023-01-07T14:59:22.169Z,98083.06
2023-01-07T15:02:35.475Z,98079.59
2023-01-07T15:05:20.909Z,98071.91
2023-01-07T15:08:27.429Z,98067.72
2023-01-07T15:11:44.250Z,98072.13
2023-01-07T15:15:20.800Z,98061.97
2023-01-07T15:18:08.191Z,98065.44
2023-01-07T15:21:18.982Z,98033.53
2023-01-07T15:24:26.596Z,98037.13
2023-01-07T15:27:33.182Z,98040.84
2023-01-07T15:30:43.243Z,98032.34
2023-01-07T15:34:05.245Z,98030.69
2023-01-07T15:36:52.672Z,98017.84
2023-01-07T15:39:45.329Z,98008.16
2023-01-07T15:42:33.024Z,98008.06
2023-01-07T15:45:22.389Z,98011.59
2023-01-07T15:48:13.020Z,98014.31
2023-01-07T15:51:00.209Z,98017.88
2023-01-07T15:53:55.433Z,98023.13
2023-01-07T15:56:41.068Z,98019.66
2023-01-07T15:59:30.899Z,98016.31
2023-01-07T16:02:22.099Z,97999.03
2023-01-07T16:05:09.512Z,98015.56
2023-01-07T16:07:57.198Z,97997.97
2023-01-07T16:10:56.661Z,97975.75
2023-01-07T16:14:01.980Z,97983.41
2023-01-07T16:16:47.751Z,97984.44
2023-01-07T16:19:33.107Z,97974.94
2023-01-07T16:22:22.767Z,97977.59
2023-01-07T16:25:17.449Z,97967.34
2023-01-07T16:28:05.086Z,97974.19
2023-01-07T16:30:52.028Z,97971.50
2023-01-07T16:33:39.300Z,97976.50
2023-01-07T16:36:35.779Z,97967.75
2023-01-07T16:39:25.528Z,97961.72
2023-01-07T16:42:23.587Z,97952.25
2023-01-07T16:45:23.722Z,97956.66
2023-01-07T16:48:19.608Z,97954.00
2023-01-07T16:51:05.514Z,97951.47
2023-01-07T16:53:51.171Z,97943.84
2023-01-07T16:56:36.856Z,97943.34
2023-01-07T16:59:27.769Z,97973.66
2023-01-07T17:02:32.149Z,97971.28
2023-01-07T17:05:19.531Z,97959.22
2023-01-07T17:08:07.784Z,97979.00
2023-01-07T17:11:00.912Z,97972.94
2023-01-07T17:13:46.291Z,97956.66
2023-01-07T17:16:33.625Z,97971.47
2023-01-07T17:19:27.570Z,97972.06
2023-01-07T17:22:42.636Z,98005.44
2023-01-07T17:25:31.015Z,98009.53
2023-01-07T17:28:19.429Z,98015.50
2023-01-07T17:31:07.124Z,98067.66
2023-01-07T17:33:53.808Z,98063.78
2023-01-07T17:36:39.298Z,98045.28
2023-01-07T17:39:24.698Z,98037.13
2023-01-07T17:42:51.181Z,98048.66
2023-01-07T17:45:36.768Z,98044.53
2023-01-07T17:48:22.156Z,98061.88
2023-01-07T17:51:09.730Z,98061.88
2023-01-07T17:53:59.118Z,98051.47
2023-01-07T17:56:44.574Z,98045.38
2023-01-07T17:59:30.500Z,98047.81
2023-01-07T18:02:18.313Z,98037.06
2023-01-07T18:05:04.337Z,98029.91
2023-01-07T18:07:51.756Z,98014.50
2023-01-07T18:10:55.919Z,98025.91
2023-01-07T18:13:42.374Z,98035.41
2023-01-07T18:16:28.189Z,98040.72
2023-01-07T18:19:14.825Z,98036.66
2023-01-07T18:22:00.423Z,98037.59
2023-01-07T18:24:45.786Z,98044.66
2023-01-07T18:27:31.257Z,98041.34
2023-01-07T18:30:18.904Z,98026.69
2023-01-07T18:33:05.226Z,98045.84
2023-01-07T18:35:50.610Z,98042.47
2023-01-07T18:38:36.024Z,98028.69
2023-01-07T18:41:21.481Z,98035.53
2023-01-07T18:44:07.085Z,98019.72
2023-01-07T18:46:52.509Z,98009.41
2023-01-07T18:49:37.925Z,98005.88
2023-01-07T18:52:23.740Z,98017.81
2023-01-07T18:55:10.822Z,98015.84
2023-01-07T18:57:56.451Z,98018.22
2023-01-07T19:00:42.373Z,98013.84
2023-01-07T19:03:27.936Z,98017.38
2023-01-07T19:06:14.360Z,98016.50
2023-01-07T19:08:59.709Z,98007.78
2023-01-07T19:11:45.596Z,98026.63
2023-01-07T19:14:30.863Z,98024.13
2023-01-07T19:17:16.373Z,98031.91
2023-01-07T19:20:01.617Z,98023.44
2023-01-07T19:22:46.992Z,98023.06
2023-01-07T19:25:32.751Z,98020.38
2023-01-07T19:28:18.142Z,98018.44
2023-01-07T19:31:08.304Z,98022.81
2023-01-07T19:33:54.026Z,98013.25
2023-01-07T19:36:41.860Z,98027.03
2023-01-07T19:39:27.216Z,98014.72
2023-01-07T19:42:12.925Z,98030.88
2023-01-07T19:44:58.178Z,98016.00
2023-01-07T19:47:44.074Z,98020.09
2023-01-07T19:50:29.240Z,98015.75
2023-01-07T19:53:14.635Z,98021.72
2023-01-07T19:56:05.607Z,98024.78
2023-01-07T19:58:54.321Z,98046.88
2023-01-07T20:01:40.435Z,98034.59
2023-01-07T20:04:27.425Z,98020.13
2023-01-07T20:07:12.843Z,98033.28
2023-01-07T20:09:58.125Z,98028.31
2023-01-07T20:12:43.412Z,98010.88
2023-01-07T20:15:28.965Z,98036.75
2023-01-07T20:18:16.137Z,98053.34
2023-01-07T20:21:01.569Z,98054.44
2023-01-07T20:23:47.531Z,98064.97
2023-01-07T20:26:34.698Z,98052.03
2023-01-07T20:29:20.226Z,98040.75
2023-01-07T20:32:07.557Z,98045.84
2023-01-07T20:34:53.079Z,98048.13
2023-01-07T20:37:38.379Z,98049.88
2023-01-07T20:40:23.953Z,98041.41
2023-01-07T20:43:10.193Z,98037.94
2023-01-07T20:46:00.373Z,98056.25
2023-01-07T20:48:46.294Z,98040.69
2023-01-07T20:51:32.051Z,98046.59
2023-01-07T20:54:17.675Z,98051.13
2023-01-07T20:57:03.169Z,98053.59
2023-01-07T20:59:48.853Z,98051.94
2023-01-07T21:02:34.695Z,98046.13
2023-01-07T21:05:21.667Z,98041.72
2023-01-07T21:08:07.608Z,98036.22
2023-01-07T21:10:53.525Z,98028.56
2023-01-07T21:13:39.483Z,98031.84
2023-01-07T21:16:26.386Z,98034.13
2023-01-07T21:19:11.905Z,98017.53
2023-01-07T21:21:57.335Z,98030.66
2023-01-07T21:24:42.768Z,98021.09
2023-01-07T21:27:28.271Z,98046.81
2023-01-07T21:30:17.880Z,98037.94
2023-01-07T21:33:03.586Z,98036.09
2023-01-07T21:35:49.038Z,98022.16
2023-01-07T21:38:34.332Z,98041.22
2023-01-07T21:41:19.753Z,98036.69
2023-01-07T21:44:05.267Z,98060.75
2023-01-07T21:46:50.830Z,98054.47
2023-01-07T21:49:36.230Z,98062.38
2023-01-07T21:52:21.923Z,98075.50
2023-01-07T21:55:08.508Z,98088.50
2023-01-07T21:57:54.022Z,98085.94
2023-01-07T22:00:39.355Z,98091.41
2023-01-07T22:03:24.775Z,98108.06
2023-01-07T22:06:20.767Z,98089.97
2023-01-07T22:09:09.077Z,98095.16
2023-01-07T22:11:54.690Z,98095.16
2023-01-07T22:14:40.357Z,98094.44
2023-01-07T22:17:26.812Z,98099.66
2023-01-07T22:20:12.529Z,98107.34
2023-01-07T22:22:58.103Z,98110.03
2023-01-07T22:25:43.624Z,98107.44
2023-01-07T22:28:32.474Z,98108.13
2023-01-07T22:31:23.736Z,98111.41
2023-01-07T22:34:09.865Z,98105.38
2023-01-07T22:37:17.668Z,98115.59
2023-01-07T22:40:06.551Z,98125.03
2023-01-07T22:42:58.288Z,98118.25
2023-01-07T22:45:50.297Z,98119.22
2023-01-07T22:48:36.430Z,98118.34
2023-01-07T22:51:27.323Z,98114.97
2023-01-07T22:54:13.785Z,98115.22
2023-01-07T22:56:59.740Z,98110.22
2023-01-07T22:59:47.056Z,98113.03
2023-01-07T23:02:32.680Z,98110.59
2023-01-07T23:05:18.257Z,98114.94
2023-01-07T23:08:03.955Z,98128.88
2023-01-07T23:10:49.703Z,98116.94
2023-01-07T23:13:35.227Z,98121.41
2023-01-07T23:16:21.028Z,98136.16
2023-01-07T23:19:06.511Z,98136.94
2023-01-07T23:21:53.981Z,98149.16
2023-01-07T23:24:39.384Z,98144.84
2023-01-07T23:27:24.833Z,98157.94
2023-01-07T23:30:11.130Z,98145.22
2023-01-07T23:32:56.472Z,98148.75
2023-01-07T23:35:41.818Z,98155.81
2023-01-07T23:38:27.234Z,98153.22
2023-01-07T23:41:13.137Z,98161.94
2023-01-07T23:43:58.510Z,98163.41
2023-01-07T23:46:43.964Z,98159.91
2023-01-07T23:49:29.287Z,98171.94
2023-01-07T23:52:14.711Z,98168.59
2023-01-07T23:55:00.135Z,98177.16
2023-01-07T23:57:45.443Z,98184.00
